Pagrindinis puslapis
METAR-TAF:

METAR-TAF

Oro uostai :

Mačala, Ekvadoras

platuma: 03-26-07S, ilguma: 079-58-40W, Aukštis: 52 m

Dabartinis oras

Ataskaita buvo paskelbta 13 valandos ir 2 minutes, ne 20:00 UTC
Vėjas 9 kt iš Vakarų/Šiaurės Vakarų
Temperatūra 25°C
Drėgmė 74%
Slėgis 1090 hPa
Matomumas 10 km arba daugiau
Mažai debesys ne aukštis 2300 ft
Apsiniaukę ne aukštis 5000 ft

METAR: SERO 202000Z 29009KT 9999 FEW023 OVC050 25/20 Q1090

Laikas: 04:02 (09:02 UTC)


TAF: trūkstamas

Orai ataskaitas ir orų prognozės (METAR, TAF).

turimą stotys yra geltonos ir raudonos taškus žemėlapyje.

Perkelti pele per norėdami pamatyti stoties vardą.

Tada spustelėkite, norėdami matyti oro stebėjimo ir prognozės.

Norėdami pakeisti žemėlapį: spustelėkite ant žalios mygtukų su juodo kryžiaus žemyn,; žalią mygtuką su brūkšneliu, jei norite nutolinti; arba žalių rodyklių gretimoms žemėlapius.


METAR-TAF: